Time;durP1;ratioP1;P1;durP2;ratioP2;P2;SDS_P1;SDS_P2;PMS_P1;PMS_P2;Temp;Humidity;BMP_temperature;BMP_pressure;BME280_temperature;BME280_humidity;BME280_pressure;Samples;Min_cycle;Max_cycle;Signal;HPM_P1;HPM_P2
2022/05/15 00:01:48;;;;;;;15.73;9.23;;;6.50;99.90;;;;;;5036016;28;20048;-59
2022/05/15 00:04:14;;;;;;;17.08;9.57;;;6.40;99.90;;;;;;5045431;28;20030;-60
2022/05/15 00:06:39;;;;;;;18.45;8.55;;;6.40;99.90;;;;;;5058153;28;20028;-59
2022/05/15 00:09:05;;;;;;;14.40;9.32;;;6.30;99.90;;;;;;5036156;28;20349;-60
2022/05/15 00:11:30;;;;;;;16.48;9.07;;;6.30;99.90;;;;;;5048791;28;20141;-59
2022/05/15 00:13:57;;;;;;;19.38;8.82;;;6.30;99.90;;;;;;5045283;28;20336;-59
2022/05/15 00:16:23;;;;;;;13.40;7.57;;;6.20;99.90;;;;;;5053751;28;20427;-60
2022/05/15 00:18:50;;;;;;;13.15;7.45;;;6.20;99.90;;;;;;5055138;28;20504;-60
2022/05/15 00:21:16;;;;;;;12.88;7.05;;;6.20;99.90;;;;;;5050955;28;20031;-59
2022/05/15 00:23:42;;;;;;;10.20;6.53;;;6.10;99.90;;;;;;5038966;28;20017;-60
2022/05/15 00:26:08;;;;;;;12.50;6.68;;;6.00;99.90;;;;;;5064354;28;20024;-60
2022/05/15 00:28:33;;;;;;;12.05;5.93;;;6.00;99.90;;;;;;5047465;28;20579;-60
2022/05/15 00:30:58;;;;;;;14.18;7.50;;;6.00;99.90;;;;;;5067751;28;20025;-58
2022/05/15 00:33:24;;;;;;;12.07;6.53;;;5.90;99.90;;;;;;5041119;28;20620;-60
2022/05/15 00:36:29;;;;;;;12.68;7.03;;;5.90;99.90;;;;;;5066940;28;20060;-60
2022/05/15 00:39:55;;;;;;;12.05;6.38;;;5.80;99.90;;;;;;5043536;28;20094;-60
2022/05/15 00:43:20;;;;;;;11.60;5.05;;;5.80;99.90;;;;;;5053715;28;20065;-60
2022/05/15 00:46:48;;;;;;;7.10;4.90;;;5.70;99.90;;;;;;5031563;28;20052;-59
2022/05/15 00:50:14;;;;;;;10.88;6.00;;;5.70;99.90;;;;;;5036235;28;20519;-60
2022/05/15 00:53:39;;;;;;;8.25;5.15;;;5.60;99.90;;;;;;5039478;28;20056;-60
2022/05/15 00:57:04;;;;;;;9.38;5.60;;;5.60;99.90;;;;;;5048588;28;20084;-60
2022/05/15 01:00:45;;;;;;;8.32;4.40;;;5.60;99.90;;;;;;5040343;28;20025;-60
2022/05/15 01:04:11;;;;;;;11.60;5.63;;;5.50;99.90;;;;;;5033085;28;20064;-60
2022/05/15 01:07:36;;;;;;;14.75;5.68;;;5.50;99.90;;;;;;5047363;28;20032;-60
2022/05/15 01:11:04;;;;;;;11.75;5.57;;;5.50;99.90;;;;;;5029872;28;20103;-60
2022/05/15 01:14:27;;;;;;;6.82;4.38;;;5.40;99.90;;;;;;5039648;28;20045;-59
2022/05/15 01:17:53;;;;;;;12.27;4.70;;;5.30;99.90;;;;;;5052350;28;20750;-60
2022/05/15 01:21:17;;;;;;;12.80;5.28;;;5.30;99.90;;;;;;5049862;28;20051;-60
2022/05/15 01:24:43;;;;;;;7.38;5.03;;;5.20;99.90;;;;;;5048571;28;20562;-60
2022/05/15 01:28:08;;;;;;;6.97;4.05;;;5.10;99.90;;;;;;5037485;28;20059;-60
2022/05/15 01:31:34;;;;;;;10.15;4.80;;;5.10;99.90;;;;;;5045853;28;20425;-60
2022/05/15 01:34:59;;;;;;;10.63;5.10;;;5.10;99.90;;;;;;5031898;28;20045;-60
2022/05/15 01:38:24;;;;;;;6.38;4.03;;;5.00;99.90;;;;;;5029006;28;20213;-60
2022/05/15 01:41:50;;;;;;;10.73;4.90;;;5.00;99.90;;;;;;5050253;28;20128;-60
2022/05/15 01:45:15;;;;;;;10.82;4.78;;;4.90;99.90;;;;;;5046069;28;20749;-60
2022/05/15 01:48:40;;;;;;;7.07;4.13;;;4.90;99.90;;;;;;5040499;28;20042;-61
2022/05/15 01:52:06;;;;;;;9.07;5.38;;;4.90;99.90;;;;;;5040716;28;20045;-59
2022/05/15 01:55:31;;;;;;;12.40;5.82;;;4.80;99.90;;;;;;5043331;28;20041;-59
2022/05/15 01:58:57;;;;;;;13.55;6.25;;;4.80;99.90;;;;;;5039757;28;20485;-60
2022/05/15 02:02:22;;;;;;;8.18;4.75;;;4.70;99.90;;;;;;5055301;28;20094;-59
2022/05/15 02:05:47;;;;;;;9.95;5.47;;;4.70;99.90;;;;;;5043446;28;20099;-59
2022/05/15 02:09:13;;;;;;;11.32;5.68;;;4.70;99.90;;;;;;5029801;28;20136;-60
2022/05/15 02:12:38;;;;;;;11.55;5.90;;;4.70;99.90;;;;;;5046657;28;20084;-59
2022/05/15 02:16:03;;;;;;;10.57;5.57;;;4.70;99.90;;;;;;5041094;28;20072;-60
2022/05/15 02:19:29;;;;;;;10.40;5.90;;;4.60;99.90;;;;;;5040559;28;20044;-59
2022/05/15 02:22:54;;;;;;;11.02;5.40;;;4.60;99.90;;;;;;5046458;28;20049;-59
2022/05/15 02:26:20;;;;;;;14.48;6.20;;;4.60;99.90;;;;;;5038837;28;20098;-58
2022/05/15 02:29:45;;;;;;;12.80;6.03;;;4.60;99.90;;;;;;5041451;28;20605;-59
2022/05/15 02:33:10;;;;;;;11.38;5.70;;;4.50;99.90;;;;;;5048758;28;20048;-60
2022/05/15 02:36:36;;;;;;;7.80;4.78;;;4.40;99.90;;;;;;5030683;28;20562;-60
2022/05/15 02:40:01;;;;;;;10.65;5.82;;;4.40;99.90;;;;;;5045383;28;20056;-60
2022/05/15 02:43:26;;;;;;;11.43;6.18;;;4.40;99.90;;;;;;5058866;28;20033;-60
2022/05/15 02:46:52;;;;;;;12.00;5.65;;;4.40;99.90;;;;;;5031139;28;20049;-60
2022/05/15 02:53:41;;;;;;;10.63;5.68;;;4.30;99.90;;;;;;5035782;28;20060;-60
2022/05/15 02:57:09;;;;;;;8.85;5.03;;;4.30;99.90;;;;;;5031122;28;20080;-60
2022/05/15 03:00:35;;;;;;;8.45;5.30;;;4.30;99.90;;;;;;5049494;28;20025;-60
2022/05/15 03:04:00;;;;;;;8.70;4.80;;;4.30;99.90;;;;;;5058858;28;20033;-60
2022/05/15 03:07:25;;;;;;;12.05;7.20;;;4.20;99.90;;;;;;5064609;28;20419;-60
2022/05/15 03:10:51;;;;;;;11.77;6.18;;;4.20;99.90;;;;;;5048144;28;20044;-59
2022/05/15 03:13:37;;;;;;;12.43;6.00;;;4.20;99.90;;;;;;5043658;28;20118;-58
2022/05/15 03:16:03;;;;;;;13.23;6.28;;;4.20;99.90;;;;;;5068326;28;20499;-57
2022/05/15 03:18:29;;;;;;;11.38;5.93;;;4.20;99.90;;;;;;5047573;28;20553;-58
2022/05/15 03:20:54;;;;;;;8.73;5.63;;;4.20;99.90;;;;;;5068174;28;20121;-59
2022/05/15 03:23:20;;;;;;;9.30;5.45;;;4.30;99.90;;;;;;5048862;28;20025;-57
2022/05/15 03:25:45;;;;;;;9.30;6.75;;;4.30;99.90;;;;;;5069616;28;20028;-56
2022/05/15 03:28:11;;;;;;;16.05;6.53;;;4.30;99.90;;;;;;5049082;28;20033;-58
2022/05/15 03:30:41;;;;;;;10.00;5.90;;;4.30;99.90;;;;;;5069598;28;20037;-58
2022/05/15 03:33:08;;;;;;;15.63;6.80;;;4.30;99.90;;;;;;5048249;28;20429;-58
2022/05/15 03:35:34;;;;;;;13.00;6.57;;;4.40;99.90;;;;;;5069830;28;20060;-58
2022/05/15 03:38:01;;;;;;;8.60;5.88;;;4.40;99.90;;;;;;5048006;28;20515;-57
2022/05/15 03:40:27;;;;;;;16.45;7.15;;;4.50;99.90;;;;;;5050241;28;20545;-59
2022/05/15 03:42:52;;;;;;;12.73;5.72;;;4.50;99.90;;;;;;5061473;28;20032;-59
2022/05/15 03:45:18;;;;;;;10.52;6.03;;;4.50;99.90;;;;;;5050360;28;20473;-57
2022/05/15 03:47:46;;;;;;;10.52;5.57;;;4.60;99.90;;;;;;5062426;28;20115;-56
2022/05/15 03:50:11;;;;;;;10.93;5.55;;;4.70;99.90;;;;;;5050255;28;20021;-59
2022/05/15 03:52:37;;;;;;;14.20;7.68;;;4.80;99.90;;;;;;5063410;28;20044;-57
2022/05/15 03:55:03;;;;;;;9.77;5.72;;;4.80;99.90;;;;;;5049891;28;20025;-59
2022/05/15 03:57:28;;;;;;;11.50;6.78;;;4.90;99.90;;;;;;5064503;28;20049;-59
2022/05/15 03:59:54;;;;;;;8.80;5.07;;;5.40;99.90;;;;;;5051105;28;20032;-59
2022/05/15 04:02:19;;;;;;;8.73;5.05;;;6.80;99.90;;;;;;5066508;28;20027;-60
2022/05/15 04:04:45;;;;;;;11.80;4.93;;;8.60;99.90;;;;;;5049789;28;20031;-60
2022/05/15 04:07:10;;;;;;;8.15;5.13;;;10.00;99.90;;;;;;5066846;28;20462;-60
2022/05/15 04:09:40;;;;;;;5.68;4.13;;;11.30;99.90;;;;;;5049517;28;20650;-59
2022/05/15 04:12:09;;;;;;;11.23;4.45;;;12.50;99.00;;;;;;5029612;28;20120;-60
2022/05/15 04:14:35;;;;;;;7.45;4.25;;;13.60;90.40;;;;;;5029838;28;20079;-60
2022/05/15 04:17:00;;;;;;;5.78;3.63;;;14.60;76.80;;;;;;5067769;28;20040;-51
2022/05/15 04:19:26;;;;;;;7.53;4.18;;;15.50;71.70;;;;;;5048174;28;20037;-51
2022/05/15 04:21:52;;;;;;;4.95;3.63;;;16.30;63.70;;;;;;5068410;28;20067;-48
2022/05/15 04:24:18;;;;;;;5.05;3.50;;;17.20;56.70;;;;;;5047953;28;20033;-48
2022/05/15 04:26:46;;;;;;;5.00;3.40;;;18.00;51.60;;;;;;5068565;28;20031;-49
2022/05/15 04:29:12;;;;;;;5.00;3.72;;;18.80;48.00;;;;;;5045549;28;20038;-49
2022/05/15 04:31:38;;;;;;;5.75;4.20;;;19.60;42.60;;;;;;5068388;28;20032;-47
2022/05/15 04:34:05;;;;;;;6.03;3.95;;;20.30;39.90;;;;;;5047862;28;20036;-52
2022/05/15 04:36:31;;;;;;;5.38;3.50;;;21.10;38.30;;;;;;5068583;28;20384;-48
2022/05/15 04:38:57;;;;;;;8.65;3.00;;;21.70;35.50;;;;;;5047548;28;20032;-53
2022/05/15 04:41:23;;;;;;;4.43;2.67;;;22.40;32.60;;;;;;5049275;28;20025;-50
2022/05/15 04:44:29;;;;;;;5.97;3.10;;;23.00;29.80;;;;;;5060491;28;20051;-53
2022/05/15 04:47:54;;;;;;;4.35;3.33;;;23.80;25.00;;;;;;5057146;28;20051;-55
2022/05/15 04:51:19;;;;;;;3.80;3.00;;;24.50;16.80;;;;;;5064193;28;20072;-54
2022/05/15 04:54:45;;;;;;;5.05;3.00;;;25.20;20.90;;;;;;5055020;28;20040;-51
2022/05/15 04:58:10;;;;;;;5.65;2.72;;;25.80;16.50;;;;;;5064935;28;20068;-49
2022/05/15 05:01:35;;;;;;;7.15;2.97;;;26.30;13.50;;;;;;5046973;28;20032;-53
2022/05/15 05:05:01;;;;;;;3.03;2.30;;;27.00;14.60;;;;;;5045066;28;20091;-51
2022/05/15 05:08:29;;;;;;;5.50;2.47;;;27.70;13.60;;;;;;5057018;28;20029;-51
2022/05/15 05:11:34;;;;;;;;;;;28.50;9.30;;;;;;5062727;28;20045;-50
2022/05/15 05:14:59;;;;;;;4.68;2.50;;;28.90;7.30;;;;;;5047077;28;20014;-54
2022/05/15 05:18:25;;;;;;;5.38;2.17;;;29.30;7.00;;;;;;5056567;28;20373;-52
2022/05/15 05:21:50;;;;;;;3.47;1.75;;;29.90;9.20;;;;;;5028349;28;20409;-53
2022/05/15 05:25:16;;;;;;;4.18;1.60;;;30.70;7.80;;;;;;5042459;28;20040;-51
2022/05/15 05:28:41;;;;;;;4.05;2.00;;;31.20;5.30;;;;;;5062182;28;20457;-55
2022/05/15 05:32:06;;;;;;;3.20;1.75;;;31.80;5.40;;;;;;5053759;28;20044;-48
2022/05/15 05:35:32;;;;;;;3.92;2.10;;;32.40;3.90;;;;;;5055298;28;20419;-47
2022/05/15 05:38:57;;;;;;;6.00;2.08;;;32.80;1.20;;;;;;5062428;28;20032;-47
2022/05/15 05:42:22;;;;;;;5.38;2.13;;;33.00;2.10;;;;;;5028131;28;20478;-48
2022/05/15 05:45:48;;;;;;;5.47;1.80;;;33.50;2.40;;;;;;5059537;28;20032;-51
2022/05/15 05:48:34;;;;;;;2.53;1.40;;;34.10;1.10;;;;;;5043747;28;20457;-53
2022/05/15 05:51:39;;;;;;;3.60;1.52;;;34.50;5.60;;;;;;5048238;28;20044;-51
2022/05/15 05:55:04;;;;;;;2.00;1.20;;;34.60;1.00;;;;;;5058203;28;20574;-53
2022/05/15 05:58:30;;;;;;;3.80;1.15;;;34.30;1.00;;;;;;5056985;28;20044;-55
2022/05/15 06:01:49;;;;;;;3.58;1.55;;;34.40;1.20;;;;;;5054347;28;20060;-54
2022/05/15 06:04:54;;;;;;;2.65;1.02;;;34.70;1.00;;;;;;5031261;28;20034;-52
2022/05/15 06:08:20;;;;;;;4.68;1.38;;;35.00;1.00;;;;;;5047811;28;20493;-49
2022/05/15 06:11:45;;;;;;;2.08;1.13;;;35.10;1.00;;;;;;5060501;28;20106;-51
2022/05/15 06:15:10;;;;;;;3.90;1.30;;;35.40;1.00;;;;;;5066370;28;20033;-52
2022/05/15 06:18:39;;;;;;;2.25;1.00;;;35.60;1.00;;;;;;5048056;28;20042;-49
2022/05/15 06:22:04;;;;;;;4.32;1.40;;;35.60;1.00;;;;;;5060562;28;20028;-48
2022/05/15 06:25:29;;;;;;;3.95;1.42;;;35.60;1.00;;;;;;5060282;28;20126;-47
2022/05/15 06:28:55;;;;;;;3.00;1.63;;;35.10;1.00;;;;;;5050924;28;20044;-50
2022/05/15 06:32:20;;;;;;;4.35;1.38;;;35.00;1.00;;;;;;5065701;28;20488;-52
2022/05/15 06:35:46;;;;;;;2.92;1.20;;;35.90;1.00;;;;;;5031625;28;20053;-53
2022/05/15 06:39:11;;;;;;;4.43;1.52;;;36.60;1.00;;;;;;5045261;28;20082;-52
2022/05/15 06:42:36;;;;;;;2.63;1.20;;;37.00;1.00;;;;;;5043019;28;20470;-52
2022/05/15 06:46:02;;;;;;;3.70;1.48;;;37.40;1.00;;;;;;5052910;28;20084;-53
2022/05/15 06:49:27;;;;;;;3.53;1.30;;;37.20;1.00;;;;;;5064975;28;20028;-50
2022/05/15 06:52:53;;;;;;;3.60;0.90;;;37.40;1.00;;;;;;5058221;28;20075;-51
2022/05/15 06:59:42;;;;;;;2.95;1.23;;;38.70;1.00;;;;;;5029727;28;20044;-50
2022/05/15 07:03:07;;;;;;;3.17;1.30;;;39.20;1.00;;;;;;5051339;28;20037;-52
2022/05/15 07:06:32;;;;;;;2.47;1.30;;;38.80;1.00;;;;;;5043404;28;20029;-53
2022/05/15 07:09:58;;;;;;;2.92;1.63;;;38.90;1.00;;;;;;5064439;28;20374;-60
2022/05/15 07:12:43;;;;;;;2.85;1.58;;;38.90;1.00;;;;;;5047988;28;20048;-59
2022/05/15 07:15:09;;;;;;;1.63;0.88;;;39.00;1.00;;;;;;5045514;28;20030;-60
2022/05/15 07:17:35;;;;;;;2.78;1.20;;;39.00;1.00;;;;;;5048052;28;20028;-60
2022/05/15 07:20:00;;;;;;;3.72;1.20;;;39.80;1.00;;;;;;5048627;28;20380;-60
2022/05/15 07:22:26;;;;;;;3.35;1.50;;;39.20;1.00;;;;;;5054116;28;20025;-60
2022/05/15 07:24:51;;;;;;;3.00;1.27;;;39.50;1.00;;;;;;5067703;28;20024;-60
2022/05/15 07:27:17;;;;;;;2.45;1.25;;;39.40;1.00;;;;;;5040243;28;20036;-60
2022/05/15 07:29:43;;;;;;;2.90;1.15;;;39.50;1.00;;;;;;5069506;28;20470;-60
2022/05/15 07:32:10;;;;;;;2.50;1.00;;;39.20;1.00;;;;;;5038603;28;20048;-60
2022/05/15 07:34:40;;;;;;;3.95;1.10;;;39.40;1.00;;;;;;5069599;28;20064;-60
2022/05/15 07:37:06;;;;;;;1.70;1.00;;;39.40;1.00;;;;;;5038685;28;20099;-60
2022/05/15 07:39:32;;;;;;;1.20;0.88;;;39.50;1.00;;;;;;5067823;28;20025;-60
2022/05/15 07:41:57;;;;;;;1.70;1.02;;;39.40;1.00;;;;;;5040730;28;20040;-60
2022/05/15 07:44:23;;;;;;;0.75;0.73;;;39.40;1.00;;;;;;5030387;28;20381;-60
2022/05/15 07:46:49;;;;;;;1.25;0.70;;;39.90;1.00;;;;;;5053962;28;20481;-60
2022/05/15 07:49:15;;;;;;;2.53;1.00;;;40.00;1.00;;;;;;5029493;28;20024;-59
2022/05/15 07:51:44;;;;;;;3.75;1.40;;;39.80;1.00;;;;;;5044342;28;20027;-60
2022/05/15 07:54:11;;;;;;;4.10;1.10;;;39.50;1.00;;;;;;5055259;28;20043;-60
2022/05/15 07:56:37;;;;;;;3.40;1.00;;;39.50;1.00;;;;;;5045177;28;20075;-59
2022/05/15 07:59:02;;;;;;;2.40;0.77;;;39.00;1.00;;;;;;5067109;28;20028;-59
2022/05/15 08:02:08;;;;;;;1.42;0.80;;;39.00;1.00;;;;;;5039212;28;20039;-60
2022/05/15 08:08:57;;;;;;;1.13;0.70;;;39.20;1.00;;;;;;5046674;28;20154;-60
2022/05/15 08:12:12;;;;;;;1.40;0.60;;;38.50;1.00;;;;;;5043615;28;20045;-59
2022/05/15 08:14:37;;;;;;;1.40;0.73;;;38.60;1.00;;;;;;5044298;28;20087;-60
2022/05/15 08:17:05;;;;;;;1.63;1.02;;;38.10;1.00;;;;;;5057548;28;20408;-60
2022/05/15 08:24:59;;;;;;;3.72;1.30;;;37.90;1.00;;;;;;5068187;28;20099;-60
2022/05/15 08:27:24;;;;;;;1.33;0.80;;;37.10;1.00;;;;;;5047244;28;20479;-60
2022/05/15 08:29:50;;;;;;;2.83;0.70;;;37.10;1.00;;;;;;5068173;28;20489;-59
2022/05/15 08:32:15;;;;;;;1.75;0.75;;;37.50;1.00;;;;;;5045519;28;20044;-59
2022/05/15 08:34:41;;;;;;;1.17;0.68;;;37.50;1.00;;;;;;5052805;28;20029;-60
2022/05/15 08:37:06;;;;;;;1.90;0.80;;;37.80;1.00;;;;;;5041545;28;20029;-59
2022/05/15 08:39:32;;;;;;;0.77;0.55;;;38.00;1.00;;;;;;5065502;28;20660;-60
2022/05/15 08:42:20;;;;;;;1.85;0.60;;;38.30;1.00;;;;;;5046765;28;20036;-60
2022/05/15 08:44:46;;;;;;;1.05;0.70;;;38.60;1.00;;;;;;5046515;28;20384;-59
2022/05/15 08:47:35;;;;;;;1.95;0.63;;;38.70;1.00;;;;;;5053224;28;20554;-59
2022/05/15 08:50:08;;;;;;;2.08;0.80;;;39.30;1.00;;;;;;5067174;28;20029;-60
2022/05/15 08:52:43;;;;;;;2.05;0.77;;;39.30;1.00;;;;;;5040021;28;20034;-59
2022/05/15 08:55:36;;;;;;;1.40;0.60;;;39.00;1.00;;;;;;5067211;28;20479;-59
2022/05/15 08:58:13;;;;;;;1.20;0.70;;;39.20;1.00;;;;;;5051433;28;20098;-59
2022/05/15 09:01:18;;;;;;;1.38;0.73;;;37.90;1.00;;;;;;5042279;28;20027;-60
2022/05/15 09:04:44;;;;;;;1.20;0.70;;;37.80;1.00;;;;;;5056422;28;20160;-60
2022/05/15 09:08:18;;;;;;;1.55;0.88;;;38.20;1.00;;;;;;5043438;28;20055;-59
2022/05/15 09:11:42;;;;;;;0.70;0.40;;;37.40;1.00;;;;;;5047081;28;20052;-59
2022/05/15 09:14:56;;;;;;;1.42;0.70;;;37.10;1.00;;;;;;5043794;28;20076;-59
2022/05/15 09:17:52;;;;;;;1.10;0.52;;;37.10;1.00;;;;;;5036397;28;20631;-59
2022/05/15 09:20:55;;;;;;;0.88;0.50;;;36.70;1.00;;;;;;5067464;28;20439;-59
2022/05/15 09:23:34;;;;;;;2.22;0.50;;;37.20;1.00;;;;;;5053403;28;20047;-60
2022/05/15 09:26:06;;;;;;;1.83;0.55;;;37.80;1.00;;;;;;5046954;28;20448;-60
2022/05/15 09:28:43;;;;;;;1.80;0.70;;;37.60;1.00;;;;;;5051678;28;20540;-59
2022/05/15 09:31:21;;;;;;;0.90;0.57;;;37.80;1.00;;;;;;5026582;28;20035;-59
2022/05/15 09:33:51;;;;;;;1.35;0.63;;;37.30;1.00;;;;;;5028498;28;20124;-59
2022/05/15 09:36:26;;;;;;;1.10;0.60;;;36.90;1.00;;;;;;5027119;28;20025;-59
2022/05/15 09:39:10;;;;;;;0.80;0.60;;;36.80;1.00;;;;;;5064634;28;20029;-59
2022/05/15 09:44:31;;;;;;;1.37;0.70;;;36.80;1.00;;;;;;5048869;28;20581;-59
2022/05/15 09:47:16;;;;;;;1.48;0.63;;;37.20;1.00;;;;;;5032064;28;20086;-59
2022/05/15 09:49:42;;;;;;;1.17;0.52;;;37.50;1.00;;;;;;5039423;28;20037;-60
2022/05/15 09:52:13;;;;;;;0.50;0.40;;;37.00;1.00;;;;;;5055832;28;20045;-59
2022/05/15 09:54:45;;;;;;;1.08;0.65;;;37.20;1.00;;;;;;5039776;28;20509;-58
2022/05/15 09:57:19;;;;;;;0.90;0.40;;;37.20;1.00;;;;;;5033795;28;20741;-58
2022/05/15 10:00:38;;;;;;;0.75;0.43;;;35.40;1.00;;;;;;5044875;28;20021;-58
2022/05/15 10:04:02;;;;;;;0.85;0.40;;;32.40;1.00;;;;;;5061226;28;20032;-58
2022/05/15 10:07:27;;;;;;;1.90;0.70;;;30.10;1.00;;;;;;5047229;28;20175;-58
2022/05/15 10:10:39;;;;;;;0.80;0.50;;;28.40;1.00;;;;;;5057070;28;20044;-58
2022/05/15 10:14:13;;;;;;;1.20;0.50;;;27.00;1.00;;;;;;5044725;28;20041;-59
2022/05/15 10:17:00;;;;;;;0.60;0.43;;;26.20;1.00;;;;;;5052028;28;20060;-59
2022/05/15 10:19:39;;;;;;;2.08;0.60;;;25.40;1.00;;;;;;5045848;28;20048;-62
2022/05/15 10:22:27;;;;;;;0.55;0.55;;;25.20;1.00;;;;;;5026668;28;20185;-62
2022/05/15 10:24:55;;;;;;;0.57;0.40;;;24.80;1.00;;;;;;5026637;28;20041;-62
2022/05/15 10:27:29;;;;;;;0.90;0.60;;;24.40;1.00;;;;;;5053541;28;20065;-62
2022/05/15 10:30:01;;;;;;;0.90;0.50;;;24.10;1.00;;;;;;5066079;28;20587;-61
2022/05/15 10:32:33;;;;;;;2.80;0.93;;;23.80;1.00;;;;;;5037208;28;20144;-62
2022/05/15 10:34:59;;;;;;;0.80;0.65;;;23.20;1.00;;;;;;5066716;28;20025;-62
2022/05/15 10:38:01;;;;;;;1.23;0.60;;;22.90;1.30;;;;;;5045731;28;20075;-61
2022/05/15 10:40:48;;;;;;;0.65;0.55;;;22.80;2.50;;;;;;5066091;28;20667;-61
2022/05/15 10:43:22;;;;;;;1.88;0.40;;;22.80;2.00;;;;;;5045235;28;20561;-62
2022/05/15 10:47:12;;;;;;;1.38;0.47;;;22.80;2.00;;;;;;5025612;28;20057;-62
2022/05/15 10:50:23;;;;;;;0.88;0.43;;;22.60;3.30;;;;;;5063584;28;20072;-63
2022/05/15 10:57:44;;;;;;;1.33;0.50;;;22.20;3.10;;;;;;5042633;28;20340;-63
2022/05/15 11:01:12;;;;;;;3.05;0.60;;;21.90;4.90;;;;;;5026865;28;20045;-63
2022/05/15 11:04:26;;;;;;;1.15;0.60;;;21.50;4.50;;;;;;5026884;28;20045;-63
2022/05/15 11:07:49;;;;;;;1.42;0.90;;;21.00;5.80;;;;;;5040422;28;20551;-63
2022/05/15 11:11:39;;;;;;;1.20;0.60;;;20.80;6.10;;;;;;5044363;28;20090;-60
2022/05/15 11:15:08;;;;;;;0.50;0.43;;;20.80;6.30;;;;;;5055480;28;20303;-60
2022/05/15 11:18:15;;;;;;;1.90;0.63;;;20.60;6.90;;;;;;5059333;28;20036;-60
2022/05/15 11:21:52;;;;;;;0.65;0.40;;;20.40;7.00;;;;;;5036540;28;20042;-61
2022/05/15 11:25:36;;;;;;;1.20;0.63;;;20.50;6.10;;;;;;5026359;28;20033;-61
2022/05/15 11:29:01;;;;;;;1.77;0.65;;;20.50;6.40;;;;;;5064837;28;20036;-61
2022/05/15 11:32:45;;;;;;;1.00;0.50;;;20.50;6.00;;;;;;5042978;28;20444;-60
2022/05/15 11:36:26;;;;;;;3.10;0.77;;;20.40;7.50;;;;;;5044838;28;20044;-60
2022/05/15 11:39:14;;;;;;;3.35;0.60;;;20.30;8.20;;;;;;5053974;28;20032;-61
2022/05/15 11:42:40;;;;;;;2.90;0.65;;;20.60;7.30;;;;;;5043902;28;20029;-62
2022/05/15 11:45:30;;;;;;;1.23;0.68;;;20.70;8.20;;;;;;5048522;28;20601;-61
2022/05/15 11:49:08;;;;;;;0.82;0.43;;;20.80;7.20;;;;;;5046827;28;20091;-61
2022/05/15 11:52:37;;;;;;;1.15;0.50;;;20.90;7.90;;;;;;5057135;28;20404;-60
2022/05/15 11:56:20;;;;;;;3.35;0.93;;;21.10;7.50;;;;;;5060494;28;20530;-60
2022/05/15 11:59:48;;;;;;;0.45;0.40;;;20.90;7.30;;;;;;5040725;28;20039;-61
2022/05/15 12:02:34;;;;;;;;;;;20.90;7.20;;;;;;5061195;28;20040;-61
2022/05/15 12:06:23;;;;;;;2.03;0.60;;;20.90;8.10;;;;;;5039490;28;20057;-61
2022/05/15 12:09:20;;;;;;;1.33;0.40;;;21.10;7.20;;;;;;5025655;28;20030;-60
2022/05/15 12:12:31;;;;;;;2.28;0.88;;;21.00;6.70;;;;;;5023401;28;20111;-61
2022/05/15 12:15:13;;;;;;;1.63;0.70;;;20.80;7.40;;;;;;5034594;28;20258;-60
2022/05/15 12:18:39;;;;;;;1.92;0.80;;;20.70;7.30;;;;;;5049598;28;20170;-60
2022/05/15 12:22:04;;;;;;;0.82;0.57;;;20.60;8.10;;;;;;5025448;28;20041;-60
2022/05/15 12:25:31;;;;;;;1.00;0.52;;;20.60;8.80;;;;;;5053241;28;20091;-61
2022/05/15 12:28:53;;;;;;;0.82;0.50;;;20.70;8.80;;;;;;5035003;28;20117;-61
2022/05/15 12:32:30;;;;;;;1.30;0.60;;;20.90;8.50;;;;;;5054380;28;20044;-61
2022/05/15 12:36:11;;;;;;;3.63;0.47;;;21.00;8.60;;;;;;5061955;28;20044;-60
2022/05/15 12:39:36;;;;;;;0.75;0.50;;;21.10;8.70;;;;;;5028904;28;20041;-60
2022/05/15 12:43:02;;;;;;;3.95;0.63;;;21.20;8.20;;;;;;5053491;28;20044;-60
2022/05/15 12:46:27;;;;;;;1.55;0.65;;;21.20;7.50;;;;;;5046307;28;20134;-60
2022/05/15 12:49:35;;;;;;;0.63;0.50;;;21.10;7.80;;;;;;5026962;28;20071;-60
2022/05/15 12:53:03;;;;;;;2.08;0.77;;;21.00;7.80;;;;;;5039694;28;20049;-61
2022/05/15 12:56:26;;;;;;;1.27;0.60;;;20.90;8.30;;;;;;5043270;28;20122;-59
2022/05/15 12:59:54;;;;;;;0.65;0.50;;;20.80;8.60;;;;;;5050514;28;20367;-59
2022/05/15 13:03:19;;;;;;;1.13;0.65;;;20.90;8.10;;;;;;5055993;28;20407;-60
2022/05/15 13:06:48;;;;;;;1.17;0.50;;;21.00;8.10;;;;;;5063426;28;20036;-60
2022/05/15 13:09:53;;;;;;;;;;;21.00;8.10;;;;;;5023187;28;20492;-60
2022/05/15 13:13:10;;;;;;;1.63;0.60;;;21.00;7.50;;;;;;5041176;28;20007;-59
2022/05/15 13:15:36;;;;;;;0.60;0.50;;;20.90;7.70;;;;;;5034098;28;20033;-60
2022/05/15 13:18:06;;;;;;;2.47;0.55;;;20.80;7.50;;;;;;5062611;28;20135;-60
2022/05/15 13:20:37;;;;;;;0.80;0.50;;;20.80;7.90;;;;;;5054727;28;20445;-59
2022/05/15 13:23:03;;;;;;;5.32;2.63;;;21.00;8.50;;;;;;5036812;28;20028;-59
2022/05/15 13:25:36;;;;;;;2.70;1.70;;;21.10;7.70;;;;;;5044666;28;20420;-59
2022/05/15 13:28:03;;;;;;;1.45;1.17;;;21.00;7.70;;;;;;5038760;28;20070;-60
2022/05/15 13:30:31;;;;;;;1.13;0.88;;;21.10;7.90;;;;;;5064808;28;20052;-59
2022/05/15 13:33:01;;;;;;;2.15;0.95;;;21.10;7.80;;;;;;5048751;28;20086;-59
2022/05/15 13:35:32;;;;;;;0.75;0.68;;;21.00;7.80;;;;;;5043712;28;20100;-60
2022/05/15 13:38:10;;;;;;;2.13;0.50;;;20.90;7.90;;;;;;5051030;28;20028;-60
2022/05/15 13:43:23;;;;;;;2.25;0.63;;;21.00;8.00;;;;;;5025958;28;20111;-60
2022/05/15 13:46:04;;;;;;;3.05;0.82;;;21.10;7.70;;;;;;5048319;28;20033;-59
2022/05/15 13:48:51;;;;;;;1.23;0.77;;;21.10;7.70;;;;;;5024909;28;20029;-60
2022/05/15 13:51:39;;;;;;;1.17;0.52;;;21.00;7.80;;;;;;5028178;28;20053;-60
2022/05/15 13:54:21;;;;;;;1.60;0.95;;;20.90;7.60;;;;;;5032542;28;20033;-60
2022/05/15 13:56:48;;;;;;;1.42;0.57;;;20.80;8.10;;;;;;5028529;28;20104;-60
2022/05/15 13:59:39;;;;;;;1.17;0.68;;;20.80;8.00;;;;;;5053326;28;20108;-59
2022/05/15 14:02:27;;;;;;;2.85;0.73;;;20.90;10.00;;;;;;5016810;28;20140;-59
2022/05/15 14:05:13;;;;;;;1.17;0.60;;;21.00;8.80;;;;;;5042331;28;20045;-60
2022/05/15 14:08:50;;;;;;;1.65;0.70;;;21.00;8.60;;;;;;5028317;28;20240;-60
2022/05/15 14:12:29;;;;;;;1.00;0.70;;;21.00;9.00;;;;;;5064349;28;20056;-60
2022/05/15 14:16:09;;;;;;;1.38;0.70;;;21.10;9.40;;;;;;5062587;28;20068;-59
2022/05/15 14:19:34;;;;;;;1.58;0.80;;;21.10;9.00;;;;;;5046375;28;20040;-59
2022/05/15 14:23:00;;;;;;;2.88;0.88;;;21.00;8.50;;;;;;5030735;28;20492;-59
2022/05/15 14:26:26;;;;;;;1.33;0.60;;;21.00;8.30;;;;;;5064844;28;20039;-59
2022/05/15 14:29:50;;;;;;;1.20;0.80;;;21.00;8.80;;;;;;5046864;28;20124;-59
2022/05/15 14:33:16;;;;;;;2.25;0.50;;;21.00;8.70;;;;;;5063844;28;20439;-60
2022/05/15 14:36:47;;;;;;;2.28;0.50;;;21.00;8.50;;;;;;5069972;28;20032;-60
2022/05/15 14:40:10;;;;;;;1.50;0.50;;;20.90;8.50;;;;;;5049591;28;20071;-60
2022/05/15 14:43:35;;;;;;;1.42;0.50;;;20.90;8.90;;;;;;5065241;28;20062;-60
2022/05/15 14:47:03;;;;;;;1.33;0.80;;;20.80;8.10;;;;;;5031323;28;20396;-59
2022/05/15 14:50:29;;;;;;;1.58;0.47;;;20.80;8.20;;;;;;5048700;28;20040;-59
2022/05/15 14:53:54;;;;;;;1.52;0.40;;;20.70;9.20;;;;;;5062457;28;20032;-59
2022/05/15 14:57:20;;;;;;;1.98;0.75;;;20.70;9.90;;;;;;5064595;28;20484;-59
2022/05/15 15:00:45;;;;;;;1.20;0.65;;;20.60;9.60;;;;;;5045668;28;20028;-60
2022/05/15 15:04:10;;;;;;;0.63;0.43;;;20.50;9.80;;;;;;5033159;28;20523;-60
2022/05/15 15:07:36;;;;;;;1.08;0.70;;;20.50;9.90;;;;;;5059223;28;20033;-59
2022/05/15 15:11:01;;;;;;;4.18;0.73;;;20.50;9.70;;;;;;5051052;28;20105;-66
2022/05/15 15:13:50;;;;;;;1.17;0.60;;;20.50;10.00;;;;;;5026027;28;20049;-66
2022/05/15 15:16:19;;;;;;;0.77;0.45;;;20.50;9.40;;;;;;5059494;28;20037;-66
2022/05/15 15:18:45;;;;;;;2.28;0.60;;;20.60;9.30;;;;;;5041333;28;20021;-66
2022/05/15 15:21:10;;;;;;;0.98;0.73;;;20.50;9.30;;;;;;5044732;28;20437;-66
2022/05/15 15:23:38;;;;;;;0.88;0.50;;;20.50;9.30;;;;;;5042551;28;20035;-66
2022/05/15 15:26:03;;;;;;;1.63;0.73;;;20.50;9.30;;;;;;5052453;28;20087;-66
2022/05/15 15:28:29;;;;;;;0.73;0.50;;;20.50;9.30;;;;;;5064221;28;20048;-66
2022/05/15 15:30:54;;;;;;;0.90;0.70;;;20.40;9.70;;;;;;5060965;28;20057;-66
2022/05/15 15:33:21;;;;;;;1.88;0.60;;;20.40;9.50;;;;;;5057133;28;20097;-66
2022/05/15 15:35:46;;;;;;;1.02;0.65;;;20.40;9.70;;;;;;5057937;28;20036;-66
2022/05/15 15:38:15;;;;;;;1.98;0.50;;;20.30;10.40;;;;;;5057857;28;20029;-66
2022/05/15 15:40:42;;;;;;;1.42;0.70;;;20.30;10.20;;;;;;5046707;28;20127;-66
2022/05/15 15:43:07;;;;;;;2.20;0.75;;;20.20;10.30;;;;;;5064359;28;20075;-66
2022/05/15 15:45:34;;;;;;;1.50;0.90;;;20.10;10.10;;;;;;5041360;28;20430;-66
2022/05/15 15:48:00;;;;;;;1.73;0.70;;;20.00;10.60;;;;;;5055962;28;20028;-66
2022/05/15 15:50:25;;;;;;;2.40;0.80;;;20.00;11.20;;;;;;5045702;28;20095;-66
2022/05/15 15:52:50;;;;;;;0.80;0.50;;;20.00;10.40;;;;;;5059931;28;20158;-67
2022/05/15 15:55:16;;;;;;;3.30;0.80;;;19.90;10.50;;;;;;5043698;28;20032;-67
2022/05/15 15:57:42;;;;;;;1.33;0.68;;;19.90;10.30;;;;;;5059150;28;20061;-66
2022/05/15 16:00:47;;;;;;;0.70;0.40;;;20.00;10.50;;;;;;5040853;28;20633;-66
2022/05/15 16:04:12;;;;;;;1.67;1.02;;;20.00;10.50;;;;;;5056694;28;20063;-66